• Join FlightAware (Why Join?)
  • Login
  • US Flag 
10:43PM EDT


 

Airport Tracker/Info


-or-


 

Live Flight TrackerFlight Track Log ✈ DAL6225 ✈ 17-Sep-2013 ✈ KPWM - KLGA

Flight Track Log - Related Links

Times and Time Zones

All times are in EDT time to prevent confusion due to time zone crossing. See the DAL6225 flight status page for this flight to view local times or setup timezone preferences in your user account.

Time Position Orientation Groundspeed Altitude Reporting Facility
EDT Latitude Longitude Course Direction KTS MPH feet Rate Location/Type
12:01PM 43.6619 -70.5258 259° West 262 302 5,900  Level Boston Center
12:02PM 43.6325 -70.6386 250° West 275 316 8,800 3,000 Climbing Boston Center
12:03PM 43.5989 -70.7572 249° West 297 342 11,900 2,700 Climbing Boston Center
12:04PM 43.5775 -70.8639 255° West 314 361 14,200 2,280 Climbing Boston Center
12:05PM 43.1733 -70.9282 259° West  Level Estimated
12:05PM 43.5081 -70.9658 227° Southwest 328 377 16,600  Level Boston Center
12:06PM 43.4381 -71.0475 220° Southwest 359 413 18,000 1,500 Climbing Boston Center
12:07PM 43.4022 -71.1914 251° West 366 421 19,600 1,860 Climbing Boston Center
12:08PM 43.3808 -71.3317 258° West 367 422 21,700 1,860 Climbing Boston Center
12:09PM 43.3569 -71.4750 257° West 376 433 23,400 1,500 Climbing Boston Center
12:10PM 43.3228 -71.6211 252° West 390 449 24,800 1,320 Climbing Boston Center
12:11PM 43.2967 -71.7725 257° West 396 456 26,000 600 Climbing Boston Center
12:12PM 43.2683 -71.9325 256° West 412 474 26,000  Level Boston Center
12:13PM 43.2397 -72.0867 256° West 417 480 26,000  Level Boston Center
12:14PM 43.2108 -72.2406 256° West 422 486 26,000  Level Boston Center
12:15PM 43.1819 -72.3944 256° West 422 486 26,000  Level Boston Center
12:16PM 43.1547 -72.5483 256° West 412 474 26,000  Level Boston Center
12:17PM 43.1253 -72.6819 253° West 412 474 26,000  Level Boston Center
12:18PM 43.0958 -72.8297 255° West 412 474 26,000 -180 Level Boston Center
12:19PM 43.0681 -72.9772 256° West 412 474 25,700 -840 Descending Boston Center
12:20PM 43.0381 -73.1361 256° West 412 474 24,400 -1,080 Descending Boston Center
12:21PM 43.0100 -73.2806 255° West 407 468 23,600 -1,080 Descending Boston Center
12:22PM 42.9611 -73.4047 242° Southwest 381 438 22,300 -840 Descending Boston Center
12:23PM 42.8811 -73.4914 218° Southwest 381 438 22,000 -180 Descending Boston Center
12:24PM 42.7808 -73.5067 186° South 372 428 22,000  Level Boston Center
12:25PM 42.6703 -73.5158 183° South 378 435 22,000  Level Boston Center
12:26PM 42.5597 -73.5281 185° South 398 458 22,000 -480 Level Boston Center
12:27PM 42.4472 -73.5403 185° South 403 464 21,100 -1,140 Descending Boston Center
12:28PM 42.3344 -73.5494 183° South 408 470 19,800 -1,380 Descending Boston Center
12:29PM 42.2261 -73.5617 185° South 402 463 18,500 -840 Descending Boston Center
12:30PM 42.1028 -73.5789 186° South 396 456 18,000 -240 Descending Boston Center
12:31PM 41.9939 -73.6272 198° South 397 457 18,000  Level Boston Center
12:32PM 41.8706 -73.6667 193° South 416 479 18,100 -480 Climbing Boston Center
12:33PM 41.7661 -73.6953 192° South 425 489 17,100 -1,320 Descending Boston Center
12:34PM 41.6428 -73.7264 191° South 418 481 15,500 -2,100 Descending Boston Center
12:35PM 41.4833 -73.7667 191° South 367 422 11,800 -2,280 Descending New York TRACON
12:36PM 41.3833 -73.7833 187° South 319 367 9,800 -1,440 Descending New York TRACON
12:37PM 41.3167 -73.7667 169° South 292 336 9,000 -600 Descending New York TRACON
12:38PM 41.2333 -73.7000 149° Southeast 294 338 8,600 -1,080 Descending New York TRACON
12:39PM 41.1833 -73.6500 143° Southeast 284 327 6,900 -1,620 Descending New York TRACON
12:40PM 41.1000 -73.6167 163° South 287 330 5,400 -1,440 Descending New York TRACON
12:41PM 41.0333 -73.6667 210° Southwest 285 328 4,100 -720 Descending New York TRACON
12:42PM 40.9833 -73.7333 225° Southwest 267 307 4,000 -60 Descending New York TRACON
12:43PM 40.9667 -73.8167 255° West 260 299 4,000  Level New York TRACON
12:44PM 40.9333 -73.9000 242° Southwest 255 293 4,000  Level New York TRACON
12:45PM 40.8667 -73.9500 210° Southwest 263 303 4,000  Level New York TRACON
12:46PM 40.8000 -73.9833 201° Southwest 254 292 4,100  Climbing New York TRACON
12:47PM 40.7500 -74.0333 217° Southwest 198 228 4,000  Descending New York TRACON
12:48PM 40.7000 -74.0667 207° Southwest 205 236 4,100 -360 Climbing New York TRACON
12:49PM 40.6500 -74.1000 207° Southwest 201 231 3,300 -540 Descending New York TRACON
12:50PM 40.6167 -74.0833 159° South 194 223 3,100 -180 Descending New York TRACON
12:51PM 40.6167 -74.0167 90° East 176 203 3,000 -180 Descending New York TRACON
12:52PM 40.6500 -73.9833 37° Northeast 180 207 2,800 -600 Descending New York TRACON
12:53PM 40.6833 -73.9500 37° Northeast 163 188 1,900 -900 Descending New York TRACON
12:54PM 40.7167 -73.9167 37° Northeast 131 151 1,100 -720 Descending New York TRACON
12:55PM 40.7500 -73.9000 21° North 125 144 500 -600 Descending New York TRACON